Saline, LA (71070)

11:25 AM CST on December 28, 2014 (GMT -0600)
RAWS GUM SPRINGS LA US | Change Station
CLOSE
Current Station
Personal Weather Station
Location: Calvin, LA
Elevation: 299 ft
Nearby Weather Stations

Elev 299 ft 31.90 °N, 92.77 °W | Updated 33 minutes ago

Rain
Rain
45 °F
Feels Like 42 °F
N
5
Wind Variable Wind from NNE
Gusts 11.0 mph

Today
High -- | Low -- °F
--% Chance of Precip.
Yesterday
High -- | Low -- °F
Precip. -- in
7:11 AM 5:15 PM
Waxing Crescent, 49% visible
Pressure 30.19 in
Visibility 10.0 miles
Clouds Scattered Clouds 800 ft
Overcast 1300 ft
Windchill 42 °F
Dew Point 45 °F
Humidity 99%
Rainfall 1.95 in
Snow Depth Not available.
UV 1 out of 12
Pollen .50 out of 12
Air Quality Not available.
Flu Activity Not available.
METAR KIER 281715Z AUTO 02006KT 10SM RA SCT008 OVC013 08/07 A3019 RMK AO2 T00800074

More Conditions Fewer Conditions

Pressure 30.19 in
Visibility 10.0 miles
Clouds Scattered Clouds 800 ft
Overcast 1300 ft
Windchill 42 °F
Dew Point 45 °F
Humidity 99%
Rainfall 1.95 in
Snow Depth Not available.
UV 1 out of 12
Pollen .50 out of 12
Air Quality Not available.
Flu Activity Not available.
METAR KIER 281715Z AUTO 02006KT 10SM RA SCT008 OVC013 08/07 A3019 RMK AO2 T00800074

More Conditions Fewer Conditions

Nowcast | as of 10:18 am CST on December 28, 2014

Occasional light rain and drizzle will continue passing across the area this morning...mainly in East Texas...Toledo Bend area into north Louisiana and south Arkansas. Rainfall amounts will continue to be light...ranging from a trace to a few hundredths of an inch over the next few hours. Motorists are urged to use caution...as many roads in the area will have slick wet conditions.

×

10-Day Weather Forecast

Almanac

Astronomy

Dec. 28, 2014 Rise Set
Actual Time
Civil Twilight
Nautical Twilight
Astronomical Twilight
Moon
Length of Visible Light
Length of Day
Tomorrow will be .
, % of the Moon is Illuminated

Today's Extremes

State Highs State Lows

Community

WunderPhotos

Upload Photos

1,781,360 photos uploaded!

WunderBlogs® & News

Nearby

Air Quality

  Air Quality AQ Index Pollutant
Not available.

Snow Depth

Station Depth Elevation

Earthquake Activity

City Distance Mag. Time & Date
Minimum magnitude displayed is 2.5.

Coastal Water Temperatures

Place Temperature

Nearby Weather Stations